Andrelandia, Brazil
Current Conditions -  °F | °C
As of 7:00 PM on Thursday 18 Dec 2014 (Local Time) from SBBQ Reporting Station
Few Clouds Few Clouds  
Wind Chill: 75°   Ceiling: Unl
Heat Index: 75°   Visibility: 6mi
Dew Point: 61°   Wind: 6mph
Humidity: 61%   Direction: 50°NE
Pressure: 29.97"   Gusts: NA
Location:  21.74°S, 44.31°W
Report Text: SBBQ 182100Z 05005KT 9999 FEW040 FEW045TCU 24/16 Q1015
Loading
Personal Weather Stations






























Interactive Weather Map New forecast layout! Learn more

10-Day Weather Forecast

Advertisements
Track Severe Weather on mobile